sensor_id;sensor_type;location;lat;lon;timestamp;pressure;altitude;pressure_sealevel;temperature;humidity
13013;BME280;22580;57.670;12.006;2024-01-30T00:02:16;102406.63;;;12.66;100.00
13013;BME280;22580;57.670;12.006;2024-01-30T00:04:44;102408.91;;;12.57;100.00
13013;BME280;22580;57.670;12.006;2024-01-30T00:07:11;102396.44;;;12.56;100.00
13013;BME280;22580;57.670;12.006;2024-01-30T00:09:38;102401.31;;;12.65;100.00
13013;BME280;22580;57.670;12.006;2024-01-30T00:12:06;102407.69;;;12.79;100.00
13013;BME280;22580;57.670;12.006;2024-01-30T00:14:33;102396.50;;;12.71;100.00
13013;BME280;22580;57.670;12.006;2024-01-30T00:17:00;102398.56;;;12.66;100.00
13013;BME280;22580;57.670;12.006;2024-01-30T00:19:27;102401.75;;;12.57;100.00
13013;BME280;22580;57.670;12.006;2024-01-30T00:21:56;102406.22;;;12.57;100.00
13013;BME280;22580;57.670;12.006;2024-01-30T00:24:23;102403.31;;;12.61;100.00
13013;BME280;22580;57.670;12.006;2024-01-30T00:26:50;102393.94;;;12.53;100.00
13013;BME280;22580;57.670;12.006;2024-01-30T00:29:17;102390.38;;;12.52;100.00
13013;BME280;22580;57.670;12.006;2024-01-30T00:31:45;102373.13;;;12.40;100.00
13013;BME280;22580;57.670;12.006;2024-01-30T00:34:12;102380.06;;;12.44;100.00
13013;BME280;22580;57.670;12.006;2024-01-30T00:36:40;102358.75;;;12.41;100.00
13013;BME280;22580;57.670;12.006;2024-01-30T00:39:08;102369.25;;;12.46;100.00
13013;BME280;22580;57.670;12.006;2024-01-30T00:41:35;102375.63;;;12.43;100.00
13013;BME280;22580;57.670;12.006;2024-01-30T00:44:02;102381.72;;;12.47;100.00
13013;BME280;22580;57.670;12.006;2024-01-30T00:46:29;102381.06;;;12.59;100.00
13013;BME280;22580;57.670;12.006;2024-01-30T00:48:56;102386.97;;;12.66;100.00
13013;BME280;22580;57.670;12.006;2024-01-30T00:51:23;102387.22;;;12.61;100.00
13013;BME280;22580;57.670;12.006;2024-01-30T00:53:50;102381.22;;;12.56;100.00
13013;BME280;22580;57.670;12.006;2024-01-30T00:56:19;102386.19;;;12.64;100.00
13013;BME280;22580;57.670;12.006;2024-01-30T00:58:46;102381.75;;;12.63;100.00
13013;BME280;22580;57.670;12.006;2024-01-30T01:01:13;102367.09;;;12.53;100.00
13013;BME280;22580;57.670;12.006;2024-01-30T01:03:40;102383.09;;;12.71;100.00
13013;BME280;22580;57.670;12.006;2024-01-30T01:06:09;102372.44;;;12.70;100.00
13013;BME280;22580;57.670;12.006;2024-01-30T01:08:36;102373.38;;;12.69;100.00
13013;BME280;22580;57.670;12.006;2024-01-30T01:11:04;102371.06;;;12.78;100.00
13013;BME280;22580;57.670;12.006;2024-01-30T01:13:32;102380.78;;;12.81;100.00
13013;BME280;22580;57.670;12.006;2024-01-30T01:15:59;102379.94;;;12.96;100.00
13013;BME280;22580;57.670;12.006;2024-01-30T01:18:26;102378.41;;;12.75;100.00
13013;BME280;22580;57.670;12.006;2024-01-30T01:20:55;102381.56;;;12.83;100.00
13013;BME280;22580;57.670;12.006;2024-01-30T01:23:22;102387.72;;;12.85;100.00
13013;BME280;22580;57.670;12.006;2024-01-30T01:25:49;102394.47;;;13.08;100.00
13013;BME280;22580;57.670;12.006;2024-01-30T01:28:16;102384.94;;;13.02;100.00
13013;BME280;22580;57.670;12.006;2024-01-30T01:30:46;102396.03;;;13.12;100.00
13013;BME280;22580;57.670;12.006;2024-01-30T01:33:12;102399.59;;;12.97;100.00
13013;BME280;22580;57.670;12.006;2024-01-30T01:35:39;102403.22;;;13.11;100.00
13013;BME280;22580;57.670;12.006;2024-01-30T01:38:07;102387.28;;;12.93;100.00
13013;BME280;22580;57.670;12.006;2024-01-30T01:40:33;102399.22;;;13.03;100.00
13013;BME280;22580;57.670;12.006;2024-01-30T01:43:03;102385.94;;;13.17;100.00
13013;BME280;22580;57.670;12.006;2024-01-30T01:45:30;102380.63;;;13.16;100.00
13013;BME280;22580;57.670;12.006;2024-01-30T01:47:59;102379.06;;;13.11;100.00
13013;BME280;22580;57.670;12.006;2024-01-30T01:50:26;102358.56;;;12.95;100.00
13013;BME280;22580;57.670;12.006;2024-01-30T01:52:53;102377.88;;;13.17;100.00
13013;BME280;22580;57.670;12.006;2024-01-30T01:55:22;102373.22;;;13.21;100.00
13013;BME280;22580;57.670;12.006;2024-01-30T01:57:51;102378.16;;;13.28;100.00
13013;BME280;22580;57.670;12.006;2024-01-30T02:00:19;102371.75;;;13.31;100.00
13013;BME280;22580;57.670;12.006;2024-01-30T02:02:47;102377.06;;;13.15;100.00
13013;BME280;22580;57.670;12.006;2024-01-30T02:05:16;102365.53;;;13.13;100.00
13013;BME280;22580;57.670;12.006;2024-01-30T02:07:43;102363.81;;;13.12;100.00
13013;BME280;22580;57.670;12.006;2024-01-30T02:10:10;102350.56;;;13.09;100.00
13013;BME280;22580;57.670;12.006;2024-01-30T02:12:38;102360.09;;;13.14;100.00
13013;BME280;22580;57.670;12.006;2024-01-30T02:15:05;102351.81;;;13.19;100.00
13013;BME280;22580;57.670;12.006;2024-01-30T02:17:33;102349.81;;;13.54;100.00
13013;BME280;22580;57.670;12.006;2024-01-30T02:20:00;102341.38;;;13.60;100.00
13013;BME280;22580;57.670;12.006;2024-01-30T02:22:31;102348.34;;;13.33;100.00
13013;BME280;22580;57.670;12.006;2024-01-30T02:25:00;102351.03;;;13.49;100.00
13013;BME280;22580;57.670;12.006;2024-01-30T02:27:27;102359.78;;;13.52;100.00
13013;BME280;22580;57.670;12.006;2024-01-30T02:29:54;102369.56;;;13.53;100.00
13013;BME280;22580;57.670;12.006;2024-01-30T02:32:21;102370.34;;;13.55;100.00
13013;BME280;22580;57.670;12.006;2024-01-30T02:34:48;102353.88;;;13.45;100.00
13013;BME280;22580;57.670;12.006;2024-01-30T02:37:16;102356.91;;;13.39;100.00
13013;BME280;22580;57.670;12.006;2024-01-30T02:39:45;102349.53;;;13.11;100.00
13013;BME280;22580;57.670;12.006;2024-01-30T02:42:12;102360.34;;;13.10;100.00
13013;BME280;22580;57.670;12.006;2024-01-30T02:44:39;102303.78;;;13.13;100.00
13013;BME280;22580;57.670;12.006;2024-01-30T02:47:08;102337.53;;;13.19;100.00
13013;BME280;22580;57.670;12.006;2024-01-30T02:49:35;102350.91;;;13.66;100.00
13013;BME280;22580;57.670;12.006;2024-01-30T02:52:03;102338.06;;;13.71;99.49
13013;BME280;22580;57.670;12.006;2024-01-30T02:54:30;102333.22;;;13.92;98.76
13013;BME280;22580;57.670;12.006;2024-01-30T02:56:59;102331.88;;;13.99;98.21
13013;BME280;22580;57.670;12.006;2024-01-30T02:59:26;102332.38;;;14.05;97.97
13013;BME280;22580;57.670;12.006;2024-01-30T03:01:54;102322.53;;;14.20;97.24
13013;BME280;22580;57.670;12.006;2024-01-30T03:04:22;102311.56;;;14.09;97.50
13013;BME280;22580;57.670;12.006;2024-01-30T03:06:48;102315.59;;;14.16;96.81
13013;BME280;22580;57.670;12.006;2024-01-30T03:09:16;102310.66;;;13.94;97.69
13013;BME280;22580;57.670;12.006;2024-01-30T03:11:43;102319.94;;;14.19;97.11
13013;BME280;22580;57.670;12.006;2024-01-30T03:14:14;102314.44;;;14.06;96.90
13013;BME280;22580;57.670;12.006;2024-01-30T03:16:42;102302.09;;;13.88;97.46
13013;BME280;22580;57.670;12.006;2024-01-30T03:19:10;102333.72;;;13.98;97.52
13013;BME280;22580;57.670;12.006;2024-01-30T03:21:36;102318.34;;;13.86;97.67
13013;BME280;22580;57.670;12.006;2024-01-30T03:24:04;102320.91;;;13.73;98.34
13013;BME280;22580;57.670;12.006;2024-01-30T03:26:31;102320.47;;;13.95;97.66
13013;BME280;22580;57.670;12.006;2024-01-30T03:28:58;102323.06;;;13.97;97.71
13013;BME280;22580;57.670;12.006;2024-01-30T03:31:26;102282.41;;;13.87;97.38
13013;BME280;22580;57.670;12.006;2024-01-30T03:33:53;102299.63;;;13.99;97.20
13013;BME280;22580;57.670;12.006;2024-01-30T03:36:20;102303.28;;;13.98;97.39
13013;BME280;22580;57.670;12.006;2024-01-30T03:38:47;102305.97;;;13.98;97.41
13013;BME280;22580;57.670;12.006;2024-01-30T03:41:14;102305.00;;;13.99;97.02
13013;BME280;22580;57.670;12.006;2024-01-30T03:43:41;102307.19;;;13.92;97.21
13013;BME280;22580;57.670;12.006;2024-01-30T03:46:08;102307.78;;;13.97;97.16
13013;BME280;22580;57.670;12.006;2024-01-30T03:48:36;102304.13;;;13.98;97.18
13013;BME280;22580;57.670;12.006;2024-01-30T03:51:04;102303.28;;;13.98;96.94
13013;BME280;22580;57.670;12.006;2024-01-30T03:53:31;102309.59;;;13.97;97.16
13013;BME280;22580;57.670;12.006;2024-01-30T03:56:01;102313.94;;;13.99;96.93
13013;BME280;22580;57.670;12.006;2024-01-30T03:58:28;102314.91;;;13.98;96.92
13013;BME280;22580;57.670;12.006;2024-01-30T04:00:55;102313.06;;;13.99;96.95
13013;BME280;22580;57.670;12.006;2024-01-30T04:03:22;102310.00;;;14.05;96.63
13013;BME280;22580;57.670;12.006;2024-01-30T04:05:51;102307.59;;;14.00;97.04
13013;BME280;22580;57.670;12.006;2024-01-30T04:08:18;102315.06;;;13.95;97.11
13013;BME280;22580;57.670;12.006;2024-01-30T04:10:46;102307.38;;;13.89;97.32
13013;BME280;22580;57.670;12.006;2024-01-30T04:13:13;102305.38;;;13.93;97.38
13013;BME280;22580;57.670;12.006;2024-01-30T04:15:40;102288.97;;;13.83;97.29
13013;BME280;22580;57.670;12.006;2024-01-30T04:18:07;102301.22;;;13.87;97.45
13013;BME280;22580;57.670;12.006;2024-01-30T04:20:35;102298.25;;;13.92;97.56
13013;BME280;22580;57.670;12.006;2024-01-30T04:23:04;102291.84;;;13.94;97.13
13013;BME280;22580;57.670;12.006;2024-01-30T04:25:32;102301.44;;;13.98;97.24
13013;BME280;22580;57.670;12.006;2024-01-30T04:28:00;102306.91;;;13.97;97.23
13013;BME280;22580;57.670;12.006;2024-01-30T04:30:27;102318.44;;;13.99;97.14
13013;BME280;22580;57.670;12.006;2024-01-30T04:32:54;102322.09;;;13.98;96.77
13013;BME280;22580;57.670;12.006;2024-01-30T04:35:21;102319.59;;;13.95;97.04
13013;BME280;22580;57.670;12.006;2024-01-30T04:37:51;102313.63;;;13.90;96.91
13013;BME280;22580;57.670;12.006;2024-01-30T04:40:21;102330.06;;;13.85;97.41
13013;BME280;22580;57.670;12.006;2024-01-30T04:42:48;102331.09;;;13.83;97.57
13013;BME280;22580;57.670;12.006;2024-01-30T04:45:18;102323.22;;;13.80;97.49
13013;BME280;22580;57.670;12.006;2024-01-30T04:47:45;102314.78;;;13.86;97.35
13013;BME280;22580;57.670;12.006;2024-01-30T04:50:12;102302.50;;;13.82;97.30
13013;BME280;22580;57.670;12.006;2024-01-30T04:52:39;102304.03;;;13.86;97.41
13013;BME280;22580;57.670;12.006;2024-01-30T04:55:07;102295.84;;;13.87;97.21
13013;BME280;22580;57.670;12.006;2024-01-30T04:57:36;102290.59;;;13.86;97.29
13013;BME280;22580;57.670;12.006;2024-01-30T05:00:03;102279.06;;;13.84;97.28
13013;BME280;22580;57.670;12.006;2024-01-30T05:02:32;102288.38;;;13.92;97.19
13013;BME280;22580;57.670;12.006;2024-01-30T05:04:59;102286.75;;;13.90;97.45
13013;BME280;22580;57.670;12.006;2024-01-30T05:07:26;102283.28;;;13.88;97.08
13013;BME280;22580;57.670;12.006;2024-01-30T05:09:53;102290.09;;;13.93;96.96
13013;BME280;22580;57.670;12.006;2024-01-30T05:12:21;102292.97;;;13.90;96.89
13013;BME280;22580;57.670;12.006;2024-01-30T05:14:49;102297.13;;;13.82;97.14
13013;BME280;22580;57.670;12.006;2024-01-30T05:17:16;102294.97;;;13.72;97.78
13013;BME280;22580;57.670;12.006;2024-01-30T05:19:43;102284.81;;;13.77;97.91
13013;BME280;22580;57.670;12.006;2024-01-30T05:22:11;102285.00;;;13.74;98.01
13013;BME280;22580;57.670;12.006;2024-01-30T05:24:40;102290.97;;;13.80;97.85
13013;BME280;22580;57.670;12.006;2024-01-30T05:27:08;102292.28;;;13.72;98.02
13013;BME280;22580;57.670;12.006;2024-01-30T05:29:35;102295.16;;;13.69;97.83
13013;BME280;22580;57.670;12.006;2024-01-30T05:32:04;102292.09;;;13.75;97.68
13013;BME280;22580;57.670;12.006;2024-01-30T05:34:32;102276.84;;;13.76;97.97
13013;BME280;22580;57.670;12.006;2024-01-30T05:36:59;102267.66;;;13.80;97.92
13013;BME280;22580;57.670;12.006;2024-01-30T05:39:26;102267.81;;;13.77;97.68
13013;BME280;22580;57.670;12.006;2024-01-30T05:41:53;102280.50;;;13.75;97.79
13013;BME280;22580;57.670;12.006;2024-01-30T05:44:20;102279.03;;;13.69;97.94
13013;BME280;22580;57.670;12.006;2024-01-30T05:46:47;102275.47;;;13.69;97.98
13013;BME280;22580;57.670;12.006;2024-01-30T05:49:16;102267.38;;;13.55;98.44
13013;BME280;22580;57.670;12.006;2024-01-30T05:51:43;102268.25;;;13.55;98.72
13013;BME280;22580;57.670;12.006;2024-01-30T05:54:10;102276.13;;;13.58;99.05
13013;BME280;22580;57.670;12.006;2024-01-30T05:56:37;102269.44;;;13.65;98.67
13013;BME280;22580;57.670;12.006;2024-01-30T05:59:05;102261.97;;;13.70;98.41
13013;BME280;22580;57.670;12.006;2024-01-30T06:01:33;102252.94;;;13.71;98.31
13013;BME280;22580;57.670;12.006;2024-01-30T06:04:00;102249.09;;;13.75;98.16
13013;BME280;22580;57.670;12.006;2024-01-30T06:06:29;102246.00;;;13.67;98.12
13013;BME280;22580;57.670;12.006;2024-01-30T06:08:57;102252.94;;;13.71;98.48
13013;BME280;22580;57.670;12.006;2024-01-30T06:11:24;102257.34;;;13.72;98.39
13013;BME280;22580;57.670;12.006;2024-01-30T06:13:52;102258.31;;;13.71;98.31
13013;BME280;22580;57.670;12.006;2024-01-30T06:16:19;102258.81;;;13.78;98.18
13013;BME280;22580;57.670;12.006;2024-01-30T06:18:48;102260.63;;;13.77;98.09
13013;BME280;22580;57.670;12.006;2024-01-30T06:21:15;102265.41;;;13.72;98.25
13013;BME280;22580;57.670;12.006;2024-01-30T06:23:44;102257.84;;;13.79;98.26
13013;BME280;22580;57.670;12.006;2024-01-30T06:26:11;102261.59;;;13.76;98.40
13013;BME280;22580;57.670;12.006;2024-01-30T06:28:38;102257.75;;;13.81;98.12
13013;BME280;22580;57.670;12.006;2024-01-30T06:31:05;102256.81;;;13.82;97.73
13013;BME280;22580;57.670;12.006;2024-01-30T06:33:32;102247.78;;;13.83;97.49
13013;BME280;22580;57.670;12.006;2024-01-30T06:35:59;102248.91;;;13.93;97.25
13013;BME280;22580;57.670;12.006;2024-01-30T06:38:26;102240.94;;;13.91;97.24
13013;BME280;22580;57.670;12.006;2024-01-30T06:40:57;102243.72;;;13.90;97.42
13013;BME280;22580;57.670;12.006;2024-01-30T06:43:23;102233.28;;;13.85;97.43
13013;BME280;22580;57.670;12.006;2024-01-30T06:45:51;102238.00;;;13.82;97.89
13013;BME280;22580;57.670;12.006;2024-01-30T06:48:18;102239.91;;;13.80;97.35
13013;BME280;22580;57.670;12.006;2024-01-30T06:50:45;102235.13;;;13.85;97.63
13013;BME280;22580;57.670;12.006;2024-01-30T06:53:13;102233.75;;;13.77;97.88
13013;BME280;22580;57.670;12.006;2024-01-30T06:55:40;102228.97;;;13.83;97.76
13013;BME280;22580;57.670;12.006;2024-01-30T06:58:08;102216.00;;;13.75;97.93
13013;BME280;22580;57.670;12.006;2024-01-30T07:00:37;102225.28;;;13.69;97.95
13013;BME280;22580;57.670;12.006;2024-01-30T07:03:04;102208.47;;;13.66;98.24
13013;BME280;22580;57.670;12.006;2024-01-30T07:05:32;102219.31;;;13.64;98.51
13013;BME280;22580;57.670;12.006;2024-01-30T07:07:59;102211.81;;;13.55;98.44
13013;BME280;22580;57.670;12.006;2024-01-30T07:10:26;102202.22;;;13.51;99.00
13013;BME280;22580;57.670;12.006;2024-01-30T07:12:52;102202.41;;;13.48;98.78
13013;BME280;22580;57.670;12.006;2024-01-30T07:15:21;102202.50;;;13.47;99.39
13013;BME280;22580;57.670;12.006;2024-01-30T07:17:47;102208.81;;;13.45;99.57
13013;BME280;22580;57.670;12.006;2024-01-30T07:20:14;102202.66;;;13.43;99.35
13013;BME280;22580;57.670;12.006;2024-01-30T07:22:43;102193.25;;;13.36;99.69
13013;BME280;22580;57.670;12.006;2024-01-30T07:25:11;102217.75;;;13.46;99.84
13013;BME280;22580;57.670;12.006;2024-01-30T07:27:38;102214.47;;;13.41;100.00
13013;BME280;22580;57.670;12.006;2024-01-30T07:30:07;102207.69;;;13.50;99.54
13013;BME280;22580;57.670;12.006;2024-01-30T07:32:35;102195.72;;;13.25;99.73
13013;BME280;22580;57.670;12.006;2024-01-30T07:35:02;102208.13;;;13.42;99.92
13013;BME280;22580;57.670;12.006;2024-01-30T07:37:29;102206.31;;;13.42;100.00
13013;BME280;22580;57.670;12.006;2024-01-30T07:39:56;102180.38;;;13.27;100.00
13013;BME280;22580;57.670;12.006;2024-01-30T07:42:23;102196.25;;;13.46;100.00
13013;BME280;22580;57.670;12.006;2024-01-30T07:44:51;102201.25;;;13.52;100.00
13013;BME280;22580;57.670;12.006;2024-01-30T07:47:18;102207.63;;;13.35;100.00
13013;BME280;22580;57.670;12.006;2024-01-30T07:49:46;102209.88;;;13.43;100.00
13013;BME280;22580;57.670;12.006;2024-01-30T07:52:13;102204.13;;;13.49;100.00
13013;BME280;22580;57.670;12.006;2024-01-30T07:54:49;102201.94;;;13.56;100.00
13013;BME280;22580;57.670;12.006;2024-01-30T07:57:17;102194.06;;;13.53;100.00
13013;BME280;22580;57.670;12.006;2024-01-30T07:59:44;102189.47;;;13.55;99.98
13013;BME280;22580;57.670;12.006;2024-01-30T08:02:12;102171.09;;;13.33;100.00
13013;BME280;22580;57.670;12.006;2024-01-30T08:04:39;102178.69;;;13.40;100.00
13013;BME280;22580;57.670;12.006;2024-01-30T08:07:07;102165.25;;;13.40;100.00
13013;BME280;22580;57.670;12.006;2024-01-30T08:09:36;102141.44;;;13.34;100.00
13013;BME280;22580;57.670;12.006;2024-01-30T08:12:03;102119.56;;;13.26;100.00
13013;BME280;22580;57.670;12.006;2024-01-30T08:14:31;102117.72;;;13.27;100.00
13013;BME280;22580;57.670;12.006;2024-01-30T08:16:57;102113.63;;;13.05;100.00
13013;BME280;22580;57.670;12.006;2024-01-30T08:19:24;102135.69;;;13.10;100.00
13013;BME280;22580;57.670;12.006;2024-01-30T08:21:51;102142.88;;;13.10;100.00
13013;BME280;22580;57.670;12.006;2024-01-30T08:24:20;102130.75;;;12.89;100.00
13013;BME280;22580;57.670;12.006;2024-01-30T08:26:47;102139.31;;;12.95;100.00
13013;BME280;22580;57.670;12.006;2024-01-30T08:29:14;102122.09;;;12.84;100.00
13013;BME280;22580;57.670;12.006;2024-01-30T08:31:41;102130.22;;;12.98;100.00
13013;BME280;22580;57.670;12.006;2024-01-30T08:34:08;102110.16;;;12.89;100.00
13013;BME280;22580;57.670;12.006;2024-01-30T08:36:35;102104.78;;;12.89;100.00
13013;BME280;22580;57.670;12.006;2024-01-30T08:39:02;102124.34;;;13.05;100.00
13013;BME280;22580;57.670;12.006;2024-01-30T08:41:32;102155.50;;;13.24;100.00
13013;BME280;22580;57.670;12.006;2024-01-30T08:43:59;102145.47;;;13.11;100.00
13013;BME280;22580;57.670;12.006;2024-01-30T08:46:26;102143.06;;;13.07;100.00
13013;BME280;22580;57.670;12.006;2024-01-30T08:48:52;102136.81;;;13.06;100.00
13013;BME280;22580;57.670;12.006;2024-01-30T08:51:19;102145.47;;;13.11;100.00
13013;BME280;22580;57.670;12.006;2024-01-30T08:53:46;102141.41;;;13.04;100.00
13013;BME280;22580;57.670;12.006;2024-01-30T08:56:13;102147.19;;;12.98;100.00
13013;BME280;22580;57.670;12.006;2024-01-30T08:58:43;102154.31;;;13.13;100.00
13013;BME280;22580;57.670;12.006;2024-01-30T09:01:10;102146.78;;;13.20;100.00
13013;BME280;22580;57.670;12.006;2024-01-30T09:03:37;102138.72;;;13.20;100.00
13013;BME280;22580;57.670;12.006;2024-01-30T09:06:08;102141.03;;;13.26;100.00
13013;BME280;22580;57.670;12.006;2024-01-30T09:08:35;102140.09;;;13.27;100.00
13013;BME280;22580;57.670;12.006;2024-01-30T09:11:08;102136.44;;;13.28;100.00
13013;BME280;22580;57.670;12.006;2024-01-30T09:13:35;102121.00;;;13.32;100.00
13013;BME280;22580;57.670;12.006;2024-01-30T09:16:04;102125.50;;;13.31;100.00
13013;BME280;22580;57.670;12.006;2024-01-30T09:18:31;102120.31;;;13.28;100.00
13013;BME280;22580;57.670;12.006;2024-01-30T09:20:58;102124.94;;;13.26;100.00
13013;BME280;22580;57.670;12.006;2024-01-30T09:23:28;102119.66;;;13.25;100.00
13013;BME280;22580;57.670;12.006;2024-01-30T09:25:55;102115.22;;;13.24;100.00
13013;BME280;22580;57.670;12.006;2024-01-30T09:28:22;102104.69;;;13.21;100.00
13013;BME280;22580;57.670;12.006;2024-01-30T09:30:49;102120.06;;;13.33;100.00
13013;BME280;22580;57.670;12.006;2024-01-30T09:33:19;102117.91;;;13.24;100.00
13013;BME280;22580;57.670;12.006;2024-01-30T09:35:46;102117.16;;;13.22;100.00
13013;BME280;22580;57.670;12.006;2024-01-30T09:38:13;102124.97;;;13.40;100.00
13013;BME280;22580;57.670;12.006;2024-01-30T09:40:40;102117.28;;;13.49;100.00
13013;BME280;22580;57.670;12.006;2024-01-30T09:43:09;102111.63;;;13.53;100.00
13013;BME280;22580;57.670;12.006;2024-01-30T09:45:42;102112.97;;;13.46;100.00
13013;BME280;22580;57.670;12.006;2024-01-30T09:48:11;102118.63;;;13.41;100.00
13013;BME280;22580;57.670;12.006;2024-01-30T09:50:39;102098.38;;;13.36;100.00
13013;BME280;22580;57.670;12.006;2024-01-30T09:53:08;102110.84;;;13.37;100.00
13013;BME280;22580;57.670;12.006;2024-01-30T09:55:36;102109.69;;;13.41;100.00
13013;BME280;22580;57.670;12.006;2024-01-30T09:58:03;102104.53;;;13.52;100.00
13013;BME280;22580;57.670;12.006;2024-01-30T10:00:30;102099.44;;;13.48;100.00
13013;BME280;22580;57.670;12.006;2024-01-30T10:02:57;102104.34;;;13.41;100.00
13013;BME280;22580;57.670;12.006;2024-01-30T10:05:26;102105.78;;;13.61;100.00
13013;BME280;22580;57.670;12.006;2024-01-30T10:07:56;102103.78;;;13.64;100.00
13013;BME280;22580;57.670;12.006;2024-01-30T10:10:24;102111.25;;;13.45;100.00
13013;BME280;22580;57.670;12.006;2024-01-30T10:12:51;102120.19;;;13.60;100.00
13013;BME280;22580;57.670;12.006;2024-01-30T10:15:18;102127.00;;;13.51;100.00
13013;BME280;22580;57.670;12.006;2024-01-30T10:17:45;102132.66;;;13.47;100.00
13013;BME280;22580;57.670;12.006;2024-01-30T10:20:12;102122.38;;;13.39;100.00
13013;BME280;22580;57.670;12.006;2024-01-30T10:22:40;102103.97;;;13.61;100.00
13013;BME280;22580;57.670;12.006;2024-01-30T10:25:09;102088.53;;;13.65;100.00
13013;BME280;22580;57.670;12.006;2024-01-30T10:27:36;102102.44;;;13.57;100.00
13013;BME280;22580;57.670;12.006;2024-01-30T10:30:07;102113.94;;;13.59;100.00
13013;BME280;22580;57.670;12.006;2024-01-30T10:32:34;102121.16;;;13.59;100.00
13013;BME280;22580;57.670;12.006;2024-01-30T10:35:02;102131.88;;;13.14;100.00
13013;BME280;22580;57.670;12.006;2024-01-30T10:37:30;102126.19;;;13.35;100.00
13013;BME280;22580;57.670;12.006;2024-01-30T10:40:02;102109.69;;;13.41;100.00
13013;BME280;22580;57.670;12.006;2024-01-30T10:42:32;102111.34;;;13.43;100.00
13013;BME280;22580;57.670;12.006;2024-01-30T10:45:05;102105.69;;;13.48;100.00
13013;BME280;22580;57.670;12.006;2024-01-30T10:47:34;102105.69;;;13.48;100.00
13013;BME280;22580;57.670;12.006;2024-01-30T10:50:02;102103.97;;;13.47;100.00
13013;BME280;22580;57.670;12.006;2024-01-30T10:52:33;102106.47;;;13.50;100.00
13013;BME280;22580;57.670;12.006;2024-01-30T10:55:04;102103.63;;;13.23;100.00
13013;BME280;22580;57.670;12.006;2024-01-30T10:57:34;102087.66;;;13.50;100.00
13013;BME280;22580;57.670;12.006;2024-01-30T11:00:03;102081.63;;;13.61;100.00
13013;BME280;22580;57.670;12.006;2024-01-30T11:02:36;102069.59;;;13.38;100.00
13013;BME280;22580;57.670;12.006;2024-01-30T11:05:05;102063.09;;;13.42;100.00
13013;BME280;22580;57.670;12.006;2024-01-30T11:07:34;102068.66;;;13.39;100.00
13013;BME280;22580;57.670;12.006;2024-01-30T11:10:02;102035.16;;;13.30;100.00
13013;BME280;22580;57.670;12.006;2024-01-30T11:12:30;102049.47;;;13.45;100.00
13013;BME280;22580;57.670;12.006;2024-01-30T11:15:05;102041.41;;;13.31;100.00
13013;BME280;22580;57.670;12.006;2024-01-30T11:17:50;102030.56;;;13.32;100.00
13013;BME280;22580;57.670;12.006;2024-01-30T11:20:22;102025.75;;;13.37;100.00
13013;BME280;22580;57.670;12.006;2024-01-30T11:22:51;102025.38;;;13.43;100.00
13013;BME280;22580;57.670;12.006;2024-01-30T11:25:20;102023.94;;;13.38;100.00
13013;BME280;22580;57.670;12.006;2024-01-30T11:27:50;102015.03;;;13.37;100.00
13013;BME280;22580;57.670;12.006;2024-01-30T11:30:25;102012.44;;;13.36;100.00
13013;BME280;22580;57.670;12.006;2024-01-30T11:33:04;101983.84;;;13.35;100.00
13013;BME280;22580;57.670;12.006;2024-01-30T11:35:32;101999.56;;;13.41;100.00
13013;BME280;22580;57.670;12.006;2024-01-30T11:38:00;101999.47;;;13.42;100.00
13013;BME280;22580;57.670;12.006;2024-01-30T11:40:28;101999.28;;;13.45;100.00
13013;BME280;22580;57.670;12.006;2024-01-30T11:42:56;101994.09;;;13.42;100.00
13013;BME280;22580;57.670;12.006;2024-01-30T11:45:24;101989.78;;;13.40;100.00
13013;BME280;22580;57.670;12.006;2024-01-30T11:47:51;101987.09;;;13.40;100.00
13013;BME280;22580;57.670;12.006;2024-01-30T11:50:18;101991.03;;;13.49;100.00
13013;BME280;22580;57.670;12.006;2024-01-30T11:52:45;101986.34;;;13.52;100.00
13013;BME280;22580;57.670;12.006;2024-01-30T11:55:14;101993.25;;;13.56;100.00
13013;BME280;22580;57.670;12.006;2024-01-30T11:57:41;101986.72;;;13.60;100.00
13013;BME280;22580;57.670;12.006;2024-01-30T12:00:14;101999.66;;;13.54;100.00
13013;BME280;22580;57.670;12.006;2024-01-30T12:02:43;101996.03;;;13.55;100.00
13013;BME280;22580;57.670;12.006;2024-01-30T12:05:11;101984.69;;;13.50;100.00
13013;BME280;22580;57.670;12.006;2024-01-30T12:07:38;101982.59;;;13.55;100.00
13013;BME280;22580;57.670;12.006;2024-01-30T12:10:05;101972.81;;;13.54;100.00
13013;BME280;22580;57.670;12.006;2024-01-30T12:12:34;101976.44;;;13.67;100.00
13013;BME280;22580;57.670;12.006;2024-01-30T12:15:01;101962.22;;;13.65;100.00
13013;BME280;22580;57.670;12.006;2024-01-30T12:17:29;101951.47;;;13.65;100.00
13013;BME280;22580;57.670;12.006;2024-01-30T12:20:08;101948.50;;;13.69;100.00
13013;BME280;22580;57.670;12.006;2024-01-30T12:22:40;101955.78;;;13.67;100.00
13013;BME280;22580;57.670;12.006;2024-01-30T12:25:08;101949.31;;;13.84;100.00
13013;BME280;22580;57.670;12.006;2024-01-30T12:27:36;101946.69;;;13.70;100.00
13013;BME280;22580;57.670;12.006;2024-01-30T12:30:05;101939.28;;;13.73;100.00
13013;BME280;22580;57.670;12.006;2024-01-30T12:32:34;101931.81;;;13.64;100.00
13013;BME280;22580;57.670;12.006;2024-01-30T12:35:01;101937.28;;;13.90;100.00
13013;BME280;22580;57.670;12.006;2024-01-30T12:37:31;101936.19;;;13.80;100.00